createdAt,value
2024-02-27T00:00:12.704Z,3.92
2024-02-27T00:02:39.485Z,3.99
2024-02-27T00:05:06.566Z,3.93
2024-02-27T00:07:33.573Z,3.88
2024-02-27T00:10:00.486Z,3.89
2024-02-27T00:12:27.426Z,3.84
2024-02-27T00:14:54.652Z,3.72
2024-02-27T00:17:22.342Z,3.83
2024-02-27T00:19:49.124Z,3.74
2024-02-27T00:22:16.813Z,3.91
2024-02-27T00:24:43.427Z,3.90
2024-02-27T00:27:10.010Z,3.92
2024-02-27T00:29:36.650Z,3.90
2024-02-27T00:32:03.406Z,3.95
2024-02-27T00:34:30.040Z,3.92
2024-02-27T00:36:56.999Z,3.83
2024-02-27T00:39:23.975Z,3.97
2024-02-27T00:41:51.070Z,3.84
2024-02-27T00:44:17.692Z,3.77
2024-02-27T00:46:44.413Z,3.86
2024-02-27T00:49:11.287Z,3.77
2024-02-27T00:51:38.121Z,3.81
2024-02-27T00:54:04.701Z,3.86
2024-02-27T00:56:31.274Z,3.67
2024-02-27T00:58:57.876Z,3.77
2024-02-27T01:01:24.457Z,3.74
2024-02-27T01:03:51.364Z,3.69
2024-02-27T01:06:18.263Z,3.82
2024-02-27T01:08:45.013Z,3.70
2024-02-27T01:11:11.846Z,3.64
2024-02-27T01:13:38.843Z,3.74
2024-02-27T01:16:05.782Z,3.69
2024-02-27T01:18:32.471Z,3.70
2024-02-27T01:20:59.636Z,3.68
2024-02-27T01:23:26.264Z,3.71
2024-02-27T01:25:52.833Z,3.69
2024-02-27T01:28:19.382Z,3.66
2024-02-27T01:30:45.965Z,3.66
2024-02-27T01:33:12.755Z,3.64
2024-02-27T01:35:39.514Z,3.62
2024-02-27T01:38:06.118Z,3.70
2024-02-27T01:40:32.632Z,3.80
2024-02-27T01:42:59.179Z,3.71
2024-02-27T01:45:27.453Z,4.01
2024-02-27T01:47:54.868Z,4.08
2024-02-27T01:50:24.546Z,3.83
2024-02-27T01:52:52.240Z,3.64
2024-02-27T01:55:20.003Z,3.85
2024-02-27T01:57:47.552Z,3.88
2024-02-27T02:00:15.741Z,3.98
2024-02-27T02:02:45.771Z,3.80
2024-02-27T02:05:13.547Z,3.70
2024-02-27T02:07:41.483Z,3.73
2024-02-27T02:10:12.460Z,3.84
2024-02-27T02:12:39.349Z,3.79
2024-02-27T02:15:06.492Z,3.54
2024-02-27T02:17:35.050Z,3.61
2024-02-27T02:20:06.220Z,3.51
2024-02-27T02:22:33.934Z,3.57
2024-02-27T02:25:01.661Z,3.30
2024-02-27T02:27:29.815Z,3.38
2024-02-27T02:29:57.380Z,3.24
2024-02-27T02:32:24.064Z,3.16
2024-02-27T02:34:50.605Z,3.08
2024-02-27T02:37:17.230Z,2.94
2024-02-27T02:39:43.779Z,3.01
2024-02-27T02:42:10.471Z,2.98
2024-02-27T02:44:37.102Z,2.95
2024-02-27T02:47:03.823Z,2.84
2024-02-27T02:49:30.605Z,2.69
2024-02-27T02:51:57.215Z,2.80
2024-02-27T02:54:24.250Z,2.75
2024-02-27T02:56:50.864Z,2.72
2024-02-27T02:59:17.437Z,2.79
2024-02-27T03:01:43.975Z,2.66
2024-02-27T03:04:10.759Z,2.71
2024-02-27T03:06:37.686Z,2.59
2024-02-27T03:09:04.392Z,2.62
2024-02-27T03:11:31.112Z,2.55
2024-02-27T03:13:57.703Z,2.50
2024-02-27T03:16:24.285Z,2.64
2024-02-27T03:18:50.937Z,2.70
2024-02-27T03:21:17.561Z,2.61
2024-02-27T03:23:44.227Z,2.36
2024-02-27T03:26:16.228Z,2.48
2024-02-27T03:28:42.799Z,2.47
2024-02-27T03:31:10.889Z,2.41
2024-02-27T03:33:37.572Z,2.33
2024-02-27T03:36:04.896Z,2.27
2024-02-27T03:38:36.466Z,2.39
2024-02-27T03:41:03.023Z,2.23
2024-02-27T03:43:30.427Z,2.31
2024-02-27T03:45:57.060Z,2.19
2024-02-27T03:48:24.192Z,2.37
2024-02-27T03:50:50.981Z,2.42
2024-02-27T03:53:17.495Z,2.31
2024-02-27T03:55:44.098Z,2.42
2024-02-27T03:58:11.248Z,2.26
2024-02-27T04:00:38.018Z,2.14
2024-02-27T04:03:05.031Z,2.14
2024-02-27T04:05:31.605Z,2.21
2024-02-27T04:07:58.155Z,2.24
2024-02-27T04:10:24.745Z,2.25
2024-02-27T04:12:51.389Z,2.23
2024-02-27T04:15:18.028Z,2.08
2024-02-27T04:17:44.721Z,2.10
2024-02-27T04:20:11.900Z,2.16
2024-02-27T04:22:38.507Z,2.22
2024-02-27T04:25:05.538Z,2.05
2024-02-27T04:27:32.272Z,1.94
2024-02-27T04:29:59.036Z,2.03
2024-02-27T04:32:25.593Z,1.97
2024-02-27T04:34:52.099Z,1.89
2024-02-27T04:37:18.522Z,1.85
2024-02-27T04:39:45.855Z,2.12
2024-02-27T04:42:12.553Z,2.07
2024-02-27T04:44:39.147Z,1.88
2024-02-27T04:47:08.712Z,1.92
2024-02-27T04:49:35.424Z,1.81
2024-02-27T04:52:02.103Z,1.88
2024-02-27T04:54:28.670Z,1.79
2024-02-27T04:56:55.934Z,1.82
2024-02-27T04:59:23.015Z,1.92
2024-02-27T05:01:51.670Z,1.80
2024-02-27T05:04:19.940Z,1.81
2024-02-27T05:06:46.731Z,1.99
2024-02-27T05:09:13.555Z,1.97
2024-02-27T05:11:40.172Z,2.05
2024-02-27T05:14:06.671Z,2.01
2024-02-27T05:16:33.131Z,2.09
2024-02-27T05:18:59.770Z,1.90
2024-02-27T05:21:26.447Z,1.92
2024-02-27T05:23:52.972Z,2.08
2024-02-27T05:26:19.365Z,1.95
2024-02-27T05:28:45.912Z,1.88
2024-02-27T05:31:29.545Z,1.80
2024-02-27T05:33:58.025Z,1.87
2024-02-27T05:36:26.270Z,1.91
2024-02-27T05:38:55.080Z,1.87
2024-02-27T05:41:22.077Z,1.97
2024-02-27T05:43:49.218Z,1.97
2024-02-27T05:46:15.776Z,2.02
2024-02-27T05:48:44.504Z,1.84
2024-02-27T05:51:11.328Z,1.81
2024-02-27T05:53:38.421Z,1.88
2024-02-27T05:56:05.477Z,1.84
2024-02-27T05:58:31.978Z,1.78
2024-02-27T06:00:58.584Z,1.92
2024-02-27T06:03:25.713Z,1.79
2024-02-27T06:05:52.729Z,1.87
2024-02-27T06:08:19.389Z,2.07
2024-02-27T06:10:46.998Z,1.84
2024-02-27T06:13:13.700Z,1.87
2024-02-27T06:15:40.485Z,1.98
2024-02-27T06:18:14.342Z,1.98
2024-02-27T06:21:00.513Z,1.97
2024-02-27T06:23:28.522Z,1.99
2024-02-27T06:25:55.935Z,1.95
2024-02-27T06:28:23.149Z,1.82
2024-02-27T06:30:49.857Z,1.80
2024-02-27T06:33:16.807Z,1.79
2024-02-27T06:35:43.431Z,1.81
2024-02-27T06:38:09.790Z,1.80
2024-02-27T06:40:36.478Z,1.78
2024-02-27T06:43:03.874Z,1.82
2024-02-27T06:45:30.454Z,1.94
2024-02-27T06:47:57.133Z,1.97
2024-02-27T06:50:23.949Z,1.92
2024-02-27T06:52:50.429Z,1.85
2024-02-27T06:55:16.892Z,1.95
2024-02-27T06:57:43.656Z,1.91
2024-02-27T07:00:11.266Z,1.99
2024-02-27T07:02:37.905Z,1.87
2024-02-27T07:05:04.845Z,1.83
2024-02-27T07:07:31.657Z,1.87
2024-02-27T07:09:58.237Z,1.91
2024-02-27T07:12:24.691Z,1.90
2024-02-27T07:14:51.283Z,1.78
2024-02-27T07:17:21.857Z,1.88
2024-02-27T07:19:48.426Z,1.97
2024-02-27T07:22:14.996Z,2.12
2024-02-27T07:24:41.812Z,2.19
2024-02-27T07:27:08.424Z,2.23
2024-02-27T07:29:34.952Z,2.34
2024-02-27T07:32:01.776Z,2.38
2024-02-27T07:34:28.320Z,2.44
2024-02-27T07:36:55.002Z,2.53
2024-02-27T07:39:22.791Z,2.56
2024-02-27T07:41:49.396Z,2.65
2024-02-27T07:44:16.589Z,2.59
2024-02-27T07:46:43.301Z,2.70
2024-02-27T07:49:11.332Z,2.71
2024-02-27T07:51:38.977Z,2.73
2024-02-27T07:54:05.726Z,2.89
2024-02-27T07:56:33.776Z,3.00
2024-02-27T07:59:00.706Z,3.05
2024-02-27T08:01:27.462Z,2.99
2024-02-27T08:03:55.152Z,3.15
2024-02-27T08:06:23.925Z,3.13
2024-02-27T08:08:53.489Z,3.24
2024-02-27T08:11:20.102Z,3.24
2024-02-27T08:13:46.747Z,3.41
2024-02-27T08:16:13.451Z,3.47
2024-02-27T08:18:40.173Z,3.64
2024-02-27T08:21:07.109Z,3.73
2024-02-27T08:23:33.619Z,3.76
2024-02-27T08:26:00.240Z,3.94
2024-02-27T08:28:26.819Z,4.02
2024-02-27T08:30:53.424Z,4.01
2024-02-27T08:33:20.625Z,4.05
2024-02-27T08:35:49.090Z,4.11
2024-02-27T08:38:15.644Z,4.22
2024-02-27T08:40:42.223Z,4.44
2024-02-27T08:43:08.734Z,4.64
2024-02-27T08:45:35.246Z,4.49
2024-02-27T08:48:04.295Z,4.60
2024-02-27T08:50:30.950Z,4.71
2024-02-27T08:52:57.497Z,4.84
2024-02-27T08:55:26.355Z,4.60
2024-02-27T08:57:53.338Z,5.08
2024-02-27T09:00:20.397Z,5.07
2024-02-27T09:02:46.941Z,4.98
2024-02-27T09:05:14.072Z,4.93
2024-02-27T09:07:42.459Z,4.87
2024-02-27T09:10:10.875Z,4.87
2024-02-27T09:12:37.978Z,4.74
2024-02-27T09:15:07.641Z,4.87
2024-02-27T09:17:36.375Z,4.99
2024-02-27T09:20:07.903Z,5.04
2024-02-27T09:22:35.080Z,5.14
2024-02-27T09:25:02.552Z,5.15
2024-02-27T09:27:29.261Z,5.54
2024-02-27T09:29:55.946Z,5.85
2024-02-27T09:32:23.352Z,5.90
2024-02-27T09:34:51.344Z,5.31
2024-02-27T09:37:19.524Z,5.34
2024-02-27T09:39:54.203Z,5.17
2024-02-27T09:42:34.558Z,5.49
2024-02-27T09:45:06.532Z,7.85
2024-02-27T09:47:37.963Z,8.38
2024-02-27T09:50:06.888Z,7.10
2024-02-27T09:52:34.693Z,6.52
2024-02-27T09:55:02.326Z,7.46
2024-02-27T09:57:29.199Z,7.28
2024-02-27T09:59:56.162Z,8.37
2024-02-27T10:02:23.013Z,8.63
2024-02-27T10:04:50.548Z,9.45
2024-02-27T10:07:19.572Z,8.99
2024-02-27T10:09:47.507Z,8.32
2024-02-27T10:12:15.107Z,9.56
2024-02-27T10:14:42.645Z,11.22
2024-02-27T10:17:10.334Z,10.35
2024-02-27T10:19:38.430Z,11.13
2024-02-27T10:22:05.675Z,11.02
2024-02-27T10:24:32.296Z,9.67
2024-02-27T10:27:04.023Z,9.47
2024-02-27T10:29:31.959Z,9.70
2024-02-27T10:31:58.981Z,10.08
2024-02-27T10:34:27.312Z,11.37
2024-02-27T10:36:59.222Z,11.41
2024-02-27T10:39:26.228Z,9.64
2024-02-27T10:41:53.325Z,11.05
2024-02-27T10:44:21.160Z,10.72
2024-02-27T10:46:51.690Z,10.41
2024-02-27T10:49:18.832Z,11.96
2024-02-27T10:51:46.472Z,12.29
2024-02-27T10:54:17.603Z,13.11
2024-02-27T10:56:45.817Z,13.80
2024-02-27T10:59:13.061Z,13.31
2024-02-27T11:01:43.508Z,13.78
2024-02-27T11:04:19.541Z,13.72
2024-02-27T11:06:50.287Z,14.34
2024-02-27T11:09:28.392Z,12.81
2024-02-27T11:12:00.583Z,12.93
2024-02-27T11:14:28.791Z,13.50
2024-02-27T11:17:09.929Z,13.91
2024-02-27T11:19:40.467Z,13.20
2024-02-27T11:22:08.085Z,11.74
2024-02-27T11:24:34.903Z,11.51
2024-02-27T11:27:01.630Z,12.33
2024-02-27T11:29:28.922Z,14.34
2024-02-27T11:31:55.815Z,14.74
2024-02-27T11:34:25.325Z,13.48
2024-02-27T11:37:20.286Z,13.13
2024-02-27T11:39:47.608Z,13.15
2024-02-27T11:42:27.798Z,13.50
2024-02-27T11:45:06.805Z,14.93
2024-02-27T11:47:38.507Z,15.24
2024-02-27T11:50:07.581Z,14.63
2024-02-27T11:52:35.800Z,15.35
2024-02-27T11:55:07.258Z,14.93
2024-02-27T11:57:36.354Z,15.51
2024-02-27T12:00:17.062Z,15.54
2024-02-27T12:02:48.221Z,15.54
2024-02-27T12:05:19.362Z,15.90
2024-02-27T12:07:46.079Z,15.24
2024-02-27T12:10:14.610Z,15.28
2024-02-27T12:12:42.073Z,15.95
2024-02-27T12:15:10.675Z,15.84
2024-02-27T12:17:38.252Z,16.02
2024-02-27T12:20:10.739Z,16.13
2024-02-27T12:22:46.240Z,16.39
2024-02-27T12:25:13.675Z,16.47
2024-02-27T12:27:40.327Z,16.56
2024-02-27T12:30:11.691Z,16.12
2024-02-27T12:32:42.564Z,16.49
2024-02-27T12:35:11.120Z,16.53
2024-02-27T12:37:43.987Z,16.40
2024-02-27T12:40:13.711Z,15.84
2024-02-27T12:42:49.008Z,16.38
2024-02-27T12:45:17.929Z,15.92
2024-02-27T12:47:47.923Z,16.52
2024-02-27T12:50:21.003Z,16.03
2024-02-27T12:52:58.834Z,15.69
2024-02-27T12:55:33.866Z,15.85
2024-02-27T12:58:00.558Z,15.97
2024-02-27T13:00:32.135Z,15.42
2024-02-27T13:02:59.053Z,15.37
2024-02-27T13:05:26.754Z,15.43
2024-02-27T13:07:56.536Z,15.18
2024-02-27T13:10:23.624Z,15.61
2024-02-27T13:13:19.307Z,15.29
2024-02-27T13:15:50.781Z,15.19
2024-02-27T13:18:18.207Z,15.62
2024-02-27T13:20:48.398Z,16.02
2024-02-27T13:23:24.046Z,15.80
2024-02-27T13:26:00.574Z,15.20
2024-02-27T13:28:28.915Z,15.75
2024-02-27T13:30:56.882Z,15.48
2024-02-27T13:33:24.046Z,15.53
2024-02-27T13:35:50.687Z,16.00
2024-02-27T13:38:17.304Z,15.08
2024-02-27T13:40:46.131Z,15.29
2024-02-27T13:43:14.520Z,15.26
2024-02-27T13:45:41.097Z,15.40
2024-02-27T13:48:10.263Z,15.41
2024-02-27T13:50:37.164Z,15.21
2024-02-27T13:53:03.834Z,14.63
2024-02-27T13:55:30.608Z,14.37
2024-02-27T13:57:57.248Z,13.15
2024-02-27T14:00:24.107Z,13.68
2024-02-27T14:02:50.844Z,14.35
2024-02-27T14:05:17.570Z,14.43
2024-02-27T14:07:44.156Z,14.59
2024-02-27T14:10:10.767Z,14.49
2024-02-27T14:12:38.500Z,14.45
2024-02-27T14:15:07.107Z,14.35
2024-02-27T14:17:35.511Z,13.87
2024-02-27T14:20:02.330Z,14.04
2024-02-27T14:22:29.114Z,13.70
2024-02-27T14:24:56.484Z,13.41
2024-02-27T14:27:23.545Z,13.66
2024-02-27T14:29:50.151Z,13.40
2024-02-27T14:32:17.576Z,13.15
2024-02-27T14:34:44.264Z,13.25
2024-02-27T14:37:11.004Z,12.83
2024-02-27T14:39:37.628Z,13.43
2024-02-27T14:42:04.541Z,13.63
2024-02-27T14:44:31.055Z,13.18
2024-02-27T14:46:57.812Z,12.84
2024-02-27T14:49:24.732Z,12.76
2024-02-27T14:51:54.458Z,12.82
2024-02-27T14:54:22.677Z,13.03
2024-02-27T14:56:49.648Z,12.79
2024-02-27T14:59:25.372Z,12.68
2024-02-27T15:02:00.226Z,12.33
2024-02-27T15:04:30.096Z,12.55
2024-02-27T15:06:56.682Z,11.90
2024-02-27T15:09:23.329Z,12.08
2024-02-27T15:11:50.058Z,12.20
2024-02-27T15:14:16.818Z,12.05
2024-02-27T15:16:43.511Z,11.98
2024-02-27T15:19:10.116Z,11.28
2024-02-27T15:21:36.942Z,10.79
2024-02-27T15:24:04.813Z,9.91
2024-02-27T15:26:31.744Z,9.86
2024-02-27T15:28:58.604Z,9.89
2024-02-27T15:31:25.298Z,9.90
2024-02-27T15:33:52.046Z,9.75
2024-02-27T15:36:19.539Z,10.12
2024-02-27T15:38:46.180Z,9.92
2024-02-27T15:41:12.800Z,9.57
2024-02-27T15:43:39.947Z,9.21
2024-02-27T15:46:10.403Z,9.25
2024-02-27T15:48:37.482Z,8.93
2024-02-27T15:51:12.577Z,9.32
2024-02-27T15:53:40.239Z,9.65
2024-02-27T15:56:10.512Z,9.78
2024-02-27T15:58:38.420Z,9.75
2024-02-27T16:01:05.527Z,9.72
2024-02-27T16:04:03.961Z,9.28
2024-02-27T16:06:46.362Z,9.51
2024-02-27T16:09:13.034Z,9.45
2024-02-27T16:11:39.704Z,9.50
2024-02-27T16:14:06.322Z,9.51
2024-02-27T16:16:32.949Z,9.39
2024-02-27T16:18:59.813Z,9.40
2024-02-27T16:21:29.588Z,9.35
2024-02-27T16:23:56.139Z,9.26
2024-02-27T16:26:22.748Z,9.17
2024-02-27T16:28:49.355Z,8.98
2024-02-27T16:31:15.815Z,8.79
2024-02-27T16:33:42.527Z,8.71
2024-02-27T16:36:09.498Z,8.58
2024-02-27T16:38:36.165Z,8.65
2024-02-27T16:41:02.742Z,8.63
2024-02-27T16:43:29.281Z,8.41
2024-02-27T16:45:56.189Z,8.44
2024-02-27T16:48:23.031Z,8.48
2024-02-27T16:50:49.613Z,8.30
2024-02-27T16:53:16.266Z,8.19
2024-02-27T16:55:42.776Z,8.04
2024-02-27T16:58:09.431Z,7.82
2024-02-27T17:00:36.266Z,7.95
2024-02-27T17:03:04.043Z,7.73
2024-02-27T17:05:31.459Z,7.36
2024-02-27T17:07:58.621Z,7.40
2024-02-27T17:10:27.444Z,7.38
2024-02-27T17:12:56.090Z,7.34
2024-02-27T17:15:24.292Z,7.38
2024-02-27T17:17:52.316Z,7.35
2024-02-27T17:20:22.303Z,7.19
2024-02-27T17:22:48.893Z,7.25
2024-02-27T17:25:15.503Z,7.21
2024-02-27T17:27:42.072Z,7.12
2024-02-27T17:30:09.228Z,7.10
2024-02-27T17:32:35.919Z,7.08
2024-02-27T17:35:02.756Z,7.03
2024-02-27T17:37:29.515Z,6.90
2024-02-27T17:39:56.020Z,6.87
2024-02-27T17:42:23.127Z,6.75
2024-02-27T17:44:51.086Z,6.69
2024-02-27T17:47:18.062Z,6.74
2024-02-27T17:49:44.720Z,6.59
2024-02-27T17:52:11.417Z,6.52
2024-02-27T17:54:41.773Z,6.37
2024-02-27T17:57:08.438Z,6.33
2024-02-27T17:59:35.322Z,6.16
2024-02-27T18:02:03.573Z,6.05
2024-02-27T18:04:30.978Z,5.93
2024-02-27T18:06:57.954Z,6.08
2024-02-27T18:09:25.621Z,6.05
2024-02-27T18:11:52.385Z,6.10
2024-02-27T18:14:20.172Z,6.07
2024-02-27T18:16:46.853Z,5.96
2024-02-27T18:19:13.729Z,6.04
2024-02-27T18:21:43.459Z,5.93
2024-02-27T18:24:10.857Z,5.75
2024-02-27T18:26:37.630Z,5.76
2024-02-27T18:29:04.421Z,5.70
2024-02-27T18:31:31.275Z,5.77
2024-02-27T18:33:58.138Z,5.70
2024-02-27T18:36:24.796Z,5.72
2024-02-27T18:38:51.422Z,5.59
2024-02-27T18:41:17.953Z,5.38
2024-02-27T18:43:44.516Z,5.36
2024-02-27T18:46:13.063Z,5.45
2024-02-27T18:48:40.017Z,5.34
2024-02-27T18:51:08.728Z,5.30
2024-02-27T18:53:37.995Z,5.21
2024-02-27T18:56:05.069Z,5.18
2024-02-27T18:58:31.559Z,5.15
2024-02-27T19:00:58.220Z,5.03
2024-02-27T19:03:24.871Z,5.13
2024-02-27T19:05:51.445Z,5.08
2024-02-27T19:08:20.079Z,4.98
2024-02-27T19:10:46.803Z,4.84
2024-02-27T19:13:13.844Z,4.94
2024-02-27T19:15:40.777Z,4.67
2024-02-27T19:18:07.569Z,4.99
2024-02-27T19:20:34.309Z,4.87
2024-02-27T19:23:00.890Z,4.88
2024-02-27T19:25:27.346Z,4.70
2024-02-27T19:27:54.199Z,4.69
2024-02-27T19:30:20.922Z,4.68
2024-02-27T19:32:47.525Z,4.53
2024-02-27T19:35:14.181Z,4.38
2024-02-27T19:37:40.743Z,4.47
2024-02-27T19:40:07.745Z,4.49
2024-02-27T19:42:36.278Z,4.59
2024-02-27T19:45:02.856Z,4.52
2024-02-27T19:47:29.459Z,4.49
2024-02-27T19:49:56.354Z,4.29
2024-02-27T19:52:22.875Z,3.88
2024-02-27T19:54:49.416Z,4.45
2024-02-27T19:57:16.048Z,4.33
2024-02-27T19:59:42.804Z,4.53
2024-02-27T20:02:09.381Z,4.44
2024-02-27T20:04:35.931Z,4.44
2024-02-27T20:07:02.590Z,4.63
2024-02-27T20:09:29.463Z,4.56
2024-02-27T20:11:55.972Z,4.46
2024-02-27T20:14:22.732Z,4.34
2024-02-27T20:16:49.302Z,4.36
2024-02-27T20:19:15.851Z,4.23
2024-02-27T20:21:42.902Z,4.33
2024-02-27T20:24:09.576Z,4.18
2024-02-27T20:26:41.779Z,3.78
2024-02-27T20:29:08.571Z,3.80
2024-02-27T20:31:36.332Z,3.69
2024-02-27T20:34:04.083Z,3.78
2024-02-27T20:36:31.035Z,3.83
2024-02-27T20:38:57.551Z,3.88
2024-02-27T20:41:24.112Z,3.97
2024-02-27T20:43:50.668Z,3.73
2024-02-27T20:46:19.539Z,3.55
2024-02-27T20:48:46.073Z,3.62
2024-02-27T20:51:12.588Z,3.62
2024-02-27T20:53:39.282Z,3.55
2024-02-27T20:56:08.044Z,3.74
2024-02-27T20:58:35.633Z,3.52
2024-02-27T21:01:02.429Z,3.64
2024-02-27T21:03:29.046Z,3.53
2024-02-27T21:05:55.593Z,3.37
2024-02-27T21:08:22.198Z,3.50
2024-02-27T21:10:48.786Z,3.41
2024-02-27T21:13:16.474Z,3.32
2024-02-27T21:15:43.363Z,3.47
2024-02-27T21:18:10.090Z,3.43
2024-02-27T21:20:41.152Z,3.37
2024-02-27T21:23:07.685Z,3.31
2024-02-27T21:25:34.295Z,3.40
2024-02-27T21:28:02.374Z,3.41
2024-02-27T21:30:28.945Z,3.56
2024-02-27T21:32:55.626Z,3.49
2024-02-27T21:35:22.260Z,3.49
2024-02-27T21:37:49.968Z,3.31
2024-02-27T21:40:16.655Z,3.19
2024-02-27T21:42:43.251Z,3.13
2024-02-27T21:45:13.012Z,3.51
2024-02-27T21:47:40.464Z,3.15
2024-02-27T21:50:07.869Z,3.21
2024-02-27T21:52:34.420Z,3.18
2024-02-27T21:55:01.048Z,3.31
2024-02-27T21:57:27.560Z,3.29
2024-02-27T21:59:54.108Z,3.18
2024-02-27T22:02:20.615Z,3.05
2024-02-27T22:04:47.652Z,3.22
2024-02-27T22:07:14.191Z,2.99
2024-02-27T22:09:40.822Z,2.94
2024-02-27T22:12:07.695Z,3.07
2024-02-27T22:14:34.260Z,2.90
2024-02-27T22:17:00.809Z,3.09
2024-02-27T22:19:27.447Z,2.77
2024-02-27T22:21:53.971Z,2.96
2024-02-27T22:24:20.666Z,2.94
2024-02-27T22:26:47.569Z,3.14
2024-02-27T22:29:14.042Z,3.19
2024-02-27T22:31:40.683Z,3.14
2024-02-27T22:34:07.280Z,3.08
2024-02-27T22:36:33.850Z,2.88
2024-02-27T22:39:00.521Z,2.86
2024-02-27T22:41:27.080Z,2.78
2024-02-27T22:43:53.868Z,2.79
2024-02-27T22:46:25.616Z,2.80
2024-02-27T22:48:52.747Z,2.88
2024-02-27T22:51:19.680Z,2.82
2024-02-27T22:53:46.723Z,2.92
2024-02-27T22:56:13.345Z,2.90
2024-02-27T22:58:39.890Z,3.01
2024-02-27T23:01:06.691Z,2.71
2024-02-27T23:03:33.369Z,2.84
2024-02-27T23:06:00.136Z,2.86
2024-02-27T23:08:26.718Z,2.76
2024-02-27T23:10:54.020Z,2.87
2024-02-27T23:13:20.773Z,2.72
2024-02-27T23:15:48.848Z,2.71
2024-02-27T23:18:16.309Z,2.81
2024-02-27T23:20:44.852Z,2.75
2024-02-27T23:23:11.389Z,2.98
2024-02-27T23:25:38.669Z,2.81
2024-02-27T23:28:05.600Z,2.68
2024-02-27T23:30:32.657Z,2.74
2024-02-27T23:32:59.185Z,2.80
2024-02-27T23:35:25.730Z,2.99
2024-02-27T23:37:52.278Z,2.80
2024-02-27T23:40:19.112Z,2.69
2024-02-27T23:42:46.782Z,2.63
2024-02-27T23:45:13.498Z,2.39
2024-02-27T23:47:41.133Z,2.60
2024-02-27T23:50:08.646Z,2.68
2024-02-27T23:52:35.184Z,2.66
2024-02-27T23:55:01.722Z,2.60
2024-02-27T23:57:28.264Z,2.66
2024-02-27T23:59:55.050Z,2.70
